createdAt,value
2019-02-27T00:00:15.275Z,102779.59
2019-02-27T00:02:45.619Z,102785.72
2019-02-27T00:05:16.003Z,102785.38
2019-02-27T00:07:45.991Z,102774.92
2019-02-27T00:10:16.537Z,102773.48
2019-02-27T00:12:46.527Z,102771.05
2019-02-27T00:15:16.553Z,102769.45
2019-02-27T00:17:51.100Z,102769.63
2019-02-27T00:20:18.269Z,102770.69
2019-02-27T00:22:50.611Z,102774.37
2019-02-27T00:25:20.082Z,102767.90
2019-02-27T00:27:50.065Z,102758.25
2019-02-27T00:30:20.629Z,102749.98
2019-02-27T00:32:51.826Z,102754.08
2019-02-27T00:35:21.852Z,102747.83
2019-02-27T00:37:52.714Z,102753.13
2019-02-27T00:40:22.901Z,102748.14
2019-02-27T00:42:54.354Z,102734.48
2019-02-27T00:45:24.995Z,102748.72
2019-02-27T00:47:54.912Z,102751.27
2019-02-27T00:50:24.817Z,102755.86
2019-02-27T00:52:54.713Z,102754.72
2019-02-27T00:55:24.979Z,102746.08
2019-02-27T00:57:55.015Z,102744.28
2019-02-27T01:00:25.397Z,102738.03
2019-02-27T01:02:55.635Z,102734.35
2019-02-27T01:05:25.769Z,102743.14
2019-02-27T01:07:55.730Z,102749.41
2019-02-27T01:10:25.896Z,102752.00
2019-02-27T01:12:58.119Z,102744.30
2019-02-27T01:15:28.917Z,102737.86
2019-02-27T01:17:58.841Z,102734.03
2019-02-27T01:20:28.741Z,102741.27
2019-02-27T01:22:58.655Z,102734.66
2019-02-27T01:25:28.537Z,102729.52
2019-02-27T01:27:58.481Z,102730.95
2019-02-27T01:30:28.404Z,102729.53
2019-02-27T01:32:58.316Z,102725.30
2019-02-27T01:35:28.229Z,102727.45
2019-02-27T01:37:58.272Z,102718.20
2019-02-27T01:40:28.494Z,102714.59
2019-02-27T01:42:58.487Z,102721.48
2019-02-27T01:45:28.449Z,102723.70
2019-02-27T01:47:58.620Z,102715.27
2019-02-27T01:50:34.560Z,102713.97
2019-02-27T01:53:07.321Z,102704.98
2019-02-27T01:55:36.892Z,102705.22
2019-02-27T01:58:09.249Z,102704.09
2019-02-27T02:00:38.968Z,102698.91
2019-02-27T02:03:08.283Z,102697.75
2019-02-27T02:05:38.305Z,102696.11
2019-02-27T02:08:27.549Z,102701.37
2019-02-27T02:10:58.939Z,102687.81
2019-02-27T02:13:48.056Z,102686.94
2019-02-27T02:16:48.447Z,102680.11
2019-02-27T02:20:16.582Z,102670.00
2019-02-27T02:23:25.031Z,102665.12
2019-02-27T02:27:09.833Z,102666.27
2019-02-27T02:30:46.937Z,102681.94
2019-02-27T02:34:39.859Z,102673.24
2019-02-27T02:38:05.047Z,102672.19
2019-02-27T02:41:38.327Z,102662.18
2019-02-27T02:44:32.789Z,102666.87
2019-02-27T02:47:37.984Z,102663.31
2019-02-27T02:50:55.558Z,102657.83
2019-02-27T02:54:14.033Z,102656.47
2019-02-27T02:57:12.887Z,102656.43
2019-02-27T03:00:37.826Z,102655.47
2019-02-27T03:03:54.629Z,102653.28
2019-02-27T03:06:42.332Z,102650.37
2019-02-27T03:09:53.123Z,102654.48
2019-02-27T03:13:16.692Z,102641.73
2019-02-27T03:16:13.598Z,102649.88
2019-02-27T03:19:28.200Z,102650.03
2019-02-27T03:22:47.353Z,102641.95
2019-02-27T03:26:01.734Z,102630.48
2019-02-27T03:29:26.514Z,102629.07
2019-02-27T03:32:28.136Z,102632.53
2019-02-27T03:35:29.212Z,102631.67
2019-02-27T03:38:27.103Z,102628.20
2019-02-27T03:41:35.011Z,102630.53
2019-02-27T03:44:57.217Z,102628.78
2019-02-27T03:47:42.877Z,102620.86
2019-02-27T03:50:50.763Z,102624.23
2019-02-27T03:54:06.414Z,102617.68
2019-02-27T03:57:23.393Z,102613.75
2019-02-27T04:00:26.143Z,102622.98
2019-02-27T04:03:56.019Z,102614.81
2019-02-27T04:07:08.381Z,102611.12
2019-02-27T04:09:38.901Z,102611.55
2019-02-27T04:12:08.824Z,102611.95
2019-02-27T04:14:42.064Z,102608.70
2019-02-27T04:17:10.699Z,102617.38
2019-02-27T04:19:41.328Z,102611.28
2019-02-27T04:22:11.305Z,102609.02
2019-02-27T04:24:41.234Z,102603.41
2019-02-27T04:27:11.536Z,102608.30
2019-02-27T04:29:41.938Z,102608.77
2019-02-27T04:32:13.138Z,102595.73
2019-02-27T04:34:43.357Z,102596.03
2019-02-27T04:37:13.505Z,102594.92
2019-02-27T04:39:43.429Z,102588.83
2019-02-27T04:42:13.599Z,102595.89
2019-02-27T04:44:43.516Z,102591.78
2019-02-27T04:47:13.681Z,102587.43
2019-02-27T04:49:43.604Z,102594.22
2019-02-27T04:52:13.527Z,102587.35
2019-02-27T04:54:43.453Z,102590.23
2019-02-27T04:57:13.384Z,102584.91
2019-02-27T04:59:43.313Z,102585.41
2019-02-27T05:02:14.645Z,102580.28
2019-02-27T05:04:45.483Z,102581.51
2019-02-27T05:07:19.931Z,102577.11
2019-02-27T05:09:47.118Z,102573.24
2019-02-27T05:12:17.104Z,102574.95
2019-02-27T05:14:47.039Z,102572.37
2019-02-27T05:17:21.153Z,102570.22
2019-02-27T05:19:48.616Z,102566.84
2019-02-27T05:22:18.592Z,102563.67
2019-02-27T05:24:48.824Z,102562.24
2019-02-27T05:27:18.799Z,102560.97
2019-02-27T05:29:48.698Z,102557.43
2019-02-27T05:32:18.611Z,102558.05
2019-02-27T05:34:49.781Z,102559.03
2019-02-27T05:37:20.481Z,102560.47
2019-02-27T05:39:51.130Z,102564.09
2019-02-27T05:42:21.733Z,102563.44
2019-02-27T05:44:55.511Z,102555.02
2019-02-27T05:47:23.438Z,102555.99
2019-02-27T05:49:53.464Z,102553.84
2019-02-27T05:52:23.475Z,102556.62
2019-02-27T05:54:53.414Z,102557.43
2019-02-27T05:57:23.879Z,102551.49
2019-02-27T05:59:53.926Z,102551.64
2019-02-27T06:02:25.502Z,102550.70
2019-02-27T06:04:56.122Z,102549.64
2019-02-27T06:07:27.235Z,102549.58
2019-02-27T06:09:57.222Z,102546.37
2019-02-27T06:12:27.354Z,102550.03
2019-02-27T06:14:57.919Z,102549.72
2019-02-27T06:17:27.882Z,102550.53
2019-02-27T06:19:57.823Z,102553.95
2019-02-27T06:22:30.505Z,102551.38
2019-02-27T06:24:59.710Z,102558.44
2019-02-27T06:27:31.644Z,102551.00
2019-02-27T06:30:01.420Z,102547.65
2019-02-27T06:32:31.814Z,102539.92
2019-02-27T06:35:01.737Z,102541.38
2019-02-27T06:37:31.695Z,102531.74
2019-02-27T06:40:01.790Z,102533.98
2019-02-27T06:42:31.842Z,102530.30
2019-02-27T06:45:02.082Z,102532.22
2019-02-27T06:47:33.019Z,102526.93
2019-02-27T06:50:03.968Z,102526.76
2019-02-27T06:52:33.923Z,102528.53
2019-02-27T06:55:04.414Z,102526.11
2019-02-27T06:57:34.337Z,102519.58
2019-02-27T07:00:05.617Z,102522.78
2019-02-27T07:02:35.506Z,102527.42
2019-02-27T07:05:05.712Z,102525.53
2019-02-27T07:07:35.949Z,102524.56
2019-02-27T07:10:06.357Z,102525.79
2019-02-27T07:12:36.242Z,102514.87
2019-02-27T07:15:10.223Z,102518.77
2019-02-27T07:17:40.158Z,102521.33
2019-02-27T07:20:11.295Z,102522.81
2019-02-27T07:22:45.492Z,102520.28
2019-02-27T07:25:13.893Z,102521.63
2019-02-27T07:27:43.862Z,102519.38
2019-02-27T07:30:16.559Z,102517.27
2019-02-27T07:32:46.648Z,102513.02
2019-02-27T07:35:16.925Z,102516.91
2019-02-27T07:37:48.359Z,102512.92
2019-02-27T07:40:18.527Z,102497.96
2019-02-27T07:42:48.780Z,102495.34
2019-02-27T07:45:19.306Z,102500.34
2019-02-27T07:47:49.267Z,102497.47
2019-02-27T07:50:19.672Z,102498.70
2019-02-27T07:52:51.810Z,102491.70
2019-02-27T07:55:22.897Z,102493.56
2019-02-27T07:57:53.043Z,102484.19
2019-02-27T08:00:23.256Z,102481.16
2019-02-27T08:02:53.413Z,102484.76
2019-02-27T08:05:28.315Z,102483.87
2019-02-27T08:07:55.464Z,102478.69
2019-02-27T08:10:25.546Z,102479.88
2019-02-27T08:12:56.615Z,102482.73
2019-02-27T08:15:26.772Z,102479.03
2019-02-27T08:17:58.001Z,102484.63
2019-02-27T08:20:29.091Z,102474.40
2019-02-27T08:22:59.279Z,102467.52
2019-02-27T08:25:29.205Z,102463.78
2019-02-27T08:27:59.099Z,102465.49
2019-02-27T08:30:29.932Z,102461.98
2019-02-27T08:32:59.929Z,102464.88
2019-02-27T08:35:30.098Z,102459.41
2019-02-27T08:38:02.826Z,102466.84
2019-02-27T08:40:32.312Z,102465.74
2019-02-27T08:43:02.333Z,102461.98
2019-02-27T08:45:32.325Z,102462.28
2019-02-27T08:48:02.882Z,102459.12
2019-02-27T08:50:33.287Z,102448.00
2019-02-27T08:53:03.276Z,102447.30
2019-02-27T08:55:33.175Z,102443.73
2019-02-27T08:58:03.320Z,102440.23
2019-02-27T09:00:34.276Z,102432.05
2019-02-27T09:03:04.503Z,102431.34
2019-02-27T09:05:34.451Z,102429.87
2019-02-27T09:08:07.347Z,102422.25
2019-02-27T09:10:36.423Z,102420.46
2019-02-27T09:13:06.459Z,102411.66
2019-02-27T09:15:36.612Z,102407.52
2019-02-27T09:18:09.438Z,102398.63
2019-02-27T09:20:39.347Z,102403.79
2019-02-27T09:23:09.284Z,102403.13
2019-02-27T09:25:39.262Z,102397.27
2019-02-27T09:28:10.074Z,102399.44
2019-02-27T09:30:40.653Z,102391.20
2019-02-27T09:33:10.791Z,102387.42
2019-02-27T09:35:41.012Z,102393.76
2019-02-27T09:38:11.126Z,102383.00
2019-02-27T09:40:42.106Z,102375.82
2019-02-27T09:43:12.225Z,102380.45
2019-02-27T09:45:46.303Z,102373.45
2019-02-27T09:48:14.177Z,102372.57
2019-02-27T09:50:48.439Z,102369.94
2019-02-27T09:53:17.573Z,102368.48
2019-02-27T09:55:47.864Z,102366.94
2019-02-27T09:58:17.786Z,102363.88
2019-02-27T10:00:53.789Z,102354.78
2019-02-27T10:03:23.859Z,102361.36
2019-02-27T10:05:53.835Z,102350.13
2019-02-27T10:08:25.322Z,102347.71
2019-02-27T10:10:55.660Z,102343.82
2019-02-27T10:13:25.722Z,102339.90
2019-02-27T10:16:00.271Z,102341.55
2019-02-27T10:18:27.714Z,102342.52
2019-02-27T10:20:57.764Z,102331.41
2019-02-27T10:23:31.183Z,102344.48
2019-02-27T10:26:00.708Z,102341.48
2019-02-27T10:28:30.807Z,102331.47
2019-02-27T10:31:00.755Z,102330.95
2019-02-27T10:33:30.740Z,102320.64
2019-02-27T10:36:03.641Z,102316.21
2019-02-27T10:38:32.950Z,102313.75
2019-02-27T10:41:03.163Z,102310.39
2019-02-27T10:43:33.142Z,102299.48
2019-02-27T10:46:25.071Z,102292.72
2019-02-27T10:48:53.557Z,102294.61
2019-02-27T10:51:23.483Z,102290.45
2019-02-27T10:53:53.429Z,102290.31
2019-02-27T10:56:24.252Z,102281.97
2019-02-27T10:58:54.797Z,102277.94
2019-02-27T11:01:24.690Z,102272.84
2019-02-27T11:03:54.711Z,102264.09
2019-02-27T11:06:33.501Z,102258.41
2019-02-27T11:08:56.573Z,102260.41
2019-02-27T11:11:26.634Z,102255.97
2019-02-27T11:13:56.669Z,102250.63
2019-02-27T11:16:27.972Z,102247.80
2019-02-27T11:18:58.009Z,102246.34
2019-02-27T11:21:27.909Z,102247.37
2019-02-27T11:23:57.844Z,102245.25
2019-02-27T11:26:27.849Z,102241.39
2019-02-27T11:28:57.959Z,102236.30
2019-02-27T11:31:27.984Z,102233.85
2019-02-27T11:33:57.992Z,102232.42
2019-02-27T11:36:28.210Z,102221.58
2019-02-27T11:38:59.188Z,102215.92
2019-02-27T11:41:30.061Z,102212.22
2019-02-27T11:44:00.172Z,102210.75
2019-02-27T11:46:30.091Z,102199.81
2019-02-27T11:49:03.046Z,102187.52
2019-02-27T11:51:31.790Z,102175.63
2019-02-27T11:54:01.730Z,102176.64
2019-02-27T11:56:31.699Z,102172.17
2019-02-27T11:59:01.665Z,102165.58
2019-02-27T12:01:32.219Z,102167.78
2019-02-27T12:04:02.370Z,102158.20
2019-02-27T12:06:32.318Z,102153.86
2019-02-27T12:09:02.381Z,102148.86
2019-02-27T12:11:32.775Z,102152.91
2019-02-27T12:14:02.858Z,102152.52
2019-02-27T12:16:33.390Z,102151.27
2019-02-27T12:19:06.404Z,102148.37
2019-02-27T12:21:35.529Z,102129.65
2019-02-27T12:24:07.967Z,102131.62
2019-02-27T12:26:38.364Z,102128.83
2019-02-27T12:29:08.792Z,102118.33
2019-02-27T12:31:38.925Z,102120.82
2019-02-27T12:34:09.090Z,102116.84
2019-02-27T12:36:39.333Z,102113.47
2019-02-27T12:39:09.431Z,102106.67
2019-02-27T12:41:39.481Z,102094.39
2019-02-27T12:44:09.476Z,102081.34
2019-02-27T12:46:39.444Z,102080.30
2019-02-27T12:49:10.293Z,102084.11
2019-02-27T12:51:40.465Z,102088.63
2019-02-27T12:54:10.987Z,102085.50
2019-02-27T12:56:43.326Z,102081.47
2019-02-27T12:59:12.637Z,102081.34
2019-02-27T13:01:42.823Z,102083.11
2019-02-27T13:04:16.109Z,102094.70
2019-02-27T13:06:44.879Z,102079.48
2019-02-27T13:09:16.680Z,102068.92
2019-02-27T13:11:46.676Z,102064.09
2019-02-27T13:14:16.631Z,102059.91
2019-02-27T13:16:49.551Z,102055.67
2019-02-27T13:19:18.842Z,102051.82
2019-02-27T13:21:48.772Z,102048.32
2019-02-27T13:24:18.900Z,102047.07
2019-02-27T13:26:48.808Z,102045.30
2019-02-27T13:29:20.553Z,102032.80
2019-02-27T13:31:51.485Z,102030.69
2019-02-27T13:34:22.048Z,102024.50
2019-02-27T13:36:52.047Z,102024.33
2019-02-27T13:39:25.446Z,102023.03
2019-02-27T13:41:53.926Z,102018.36
2019-02-27T13:44:23.886Z,102015.79
2019-02-27T13:46:54.495Z,102010.69
2019-02-27T13:49:25.988Z,102003.56
2019-02-27T13:51:55.856Z,101998.27
2019-02-27T13:54:26.265Z,101994.31
2019-02-27T13:56:56.151Z,101973.16
2019-02-27T13:59:26.105Z,101977.81
2019-02-27T14:01:56.212Z,101975.42
2019-02-27T14:04:26.153Z,101976.36
2019-02-27T14:06:56.105Z,101970.03
2019-02-27T14:09:26.368Z,101958.42
2019-02-27T14:11:58.695Z,101947.71
2019-02-27T14:14:28.343Z,101938.81
2019-02-27T14:16:58.363Z,101934.55
2019-02-27T14:19:28.293Z,101933.66
2019-02-27T14:21:58.617Z,101940.12
2019-02-27T14:24:28.766Z,101932.61
2019-02-27T14:26:58.982Z,101933.14
2019-02-27T14:29:29.778Z,101927.20
2019-02-27T14:32:00.981Z,101920.38
2019-02-27T14:34:31.143Z,101919.88
2019-02-27T14:37:01.168Z,101919.61
2019-02-27T14:39:31.112Z,101918.49
2019-02-27T14:42:01.100Z,101907.37
2019-02-27T14:44:31.460Z,101902.88
2019-02-27T14:47:02.392Z,101908.70
2019-02-27T14:49:32.387Z,101902.59
2019-02-27T14:52:02.965Z,101902.16
2019-02-27T14:54:33.437Z,101898.56
2019-02-27T14:57:03.321Z,101882.58
2019-02-27T14:59:33.299Z,101888.22
2019-02-27T15:02:03.306Z,101877.36
2019-02-27T15:04:33.354Z,101872.50
2019-02-27T15:07:03.608Z,101871.25
2019-02-27T15:09:36.069Z,101864.16
2019-02-27T15:12:05.354Z,101854.47
2019-02-27T15:14:35.305Z,101843.78
2019-02-27T15:17:05.346Z,101838.22
2019-02-27T15:19:35.523Z,101829.12
2019-02-27T15:22:06.230Z,101827.61
2019-02-27T15:24:36.246Z,101820.48
2019-02-27T15:27:06.200Z,101809.72
2019-02-27T15:29:36.908Z,101811.30
2019-02-27T15:32:07.049Z,101817.24
2019-02-27T15:34:36.928Z,101807.76
2019-02-27T15:37:06.885Z,101810.23
2019-02-27T15:39:36.783Z,101808.16
2019-02-27T15:42:09.692Z,101806.98
2019-02-27T15:44:38.427Z,101806.77
2019-02-27T15:47:08.373Z,101790.35
2019-02-27T15:49:38.337Z,101790.28
2019-02-27T15:52:08.637Z,101793.47
2019-02-27T15:54:38.546Z,101784.83
2019-02-27T15:57:08.469Z,101778.55
2019-02-27T15:59:41.737Z,101768.68
2019-02-27T16:02:10.516Z,101761.53
2019-02-27T16:04:40.857Z,101761.72
2019-02-27T16:07:11.222Z,101750.88
2019-02-27T16:09:42.423Z,101748.66
2019-02-27T16:12:12.481Z,101744.03
2019-02-27T16:14:42.845Z,101738.20
2019-02-27T16:17:13.832Z,101743.82
2019-02-27T16:19:44.713Z,101738.70
2019-02-27T16:22:15.096Z,101750.94
2019-02-27T16:24:45.021Z,101745.39
2019-02-27T16:27:14.978Z,101741.87
2019-02-27T16:29:45.177Z,101737.72
2019-02-27T16:32:15.127Z,101737.82
2019-02-27T16:34:45.154Z,101737.79
2019-02-27T16:37:15.272Z,101734.09
2019-02-27T16:39:45.700Z,101721.42
2019-02-27T16:42:17.260Z,101718.53
2019-02-27T16:44:47.165Z,101719.23
2019-02-27T16:47:19.906Z,101719.11
2019-02-27T16:49:50.424Z,101717.06
2019-02-27T16:52:20.494Z,101707.63
2019-02-27T16:54:50.738Z,101708.72
2019-02-27T16:57:24.137Z,101703.62
2019-02-27T16:59:52.426Z,101709.38
2019-02-27T17:02:22.435Z,101701.33
2019-02-27T17:04:52.473Z,101702.09
2019-02-27T17:07:25.635Z,101696.66
2019-02-27T17:09:54.222Z,101686.47
2019-02-27T17:12:24.191Z,101685.79
2019-02-27T17:14:55.379Z,101683.75
2019-02-27T17:17:25.817Z,101676.51
2019-02-27T17:19:55.761Z,101677.76
2019-02-27T17:22:25.882Z,101671.42
2019-02-27T17:24:55.994Z,101672.62
2019-02-27T17:27:25.961Z,101674.33
2019-02-27T17:30:00.085Z,101663.50
2019-02-27T17:32:30.999Z,101662.39
2019-02-27T17:35:00.896Z,101659.74
2019-02-27T17:37:30.857Z,101647.55
2019-02-27T17:40:02.246Z,101641.36
2019-02-27T17:42:32.452Z,101643.14
2019-02-27T17:45:02.493Z,101634.97
2019-02-27T17:47:32.493Z,101643.27
2019-02-27T17:50:02.687Z,101636.64
2019-02-27T17:52:33.111Z,101637.88
2019-02-27T17:55:03.506Z,101633.21
2019-02-27T17:57:35.199Z,101620.41
2019-02-27T18:00:07.045Z,101620.14
2019-02-27T18:02:37.198Z,101623.70
2019-02-27T18:05:07.370Z,101619.28
2019-02-27T18:07:37.334Z,101622.04
2019-02-27T18:10:07.689Z,101614.84
2019-02-27T18:12:37.948Z,101610.25
2019-02-27T18:15:10.152Z,101612.67
2019-02-27T18:17:40.289Z,101612.21
2019-02-27T18:20:10.870Z,101605.45
2019-02-27T18:22:40.905Z,101600.49
2019-02-27T18:25:11.708Z,101596.84
2019-02-27T18:27:42.534Z,101595.08
2019-02-27T18:30:15.476Z,101601.45
2019-02-27T18:32:46.605Z,101596.95
2019-02-27T18:35:16.889Z,101591.88
2019-02-27T18:37:53.101Z,101586.33
2019-02-27T18:40:19.619Z,101579.91
2019-02-27T18:42:55.164Z,101573.39
2019-02-27T18:45:21.733Z,101567.95
2019-02-27T18:47:51.830Z,101558.05
2019-02-27T18:50:24.742Z,101548.84
2019-02-27T18:52:53.828Z,101545.45
2019-02-27T18:55:29.573Z,101541.27
2019-02-27T18:57:55.675Z,101541.42
2019-02-27T19:00:25.819Z,101525.80
2019-02-27T19:02:56.268Z,101532.04
2019-02-27T19:05:26.407Z,101529.05
2019-02-27T19:07:56.960Z,101519.05
2019-02-27T19:10:27.129Z,101516.22
2019-02-27T19:13:00.040Z,101517.08
2019-02-27T19:15:29.448Z,101510.53
2019-02-27T19:17:59.726Z,101509.72
2019-02-27T19:20:31.063Z,101511.13
2019-02-27T19:23:01.696Z,101505.36
2019-02-27T19:25:34.758Z,101498.29
2019-02-27T19:28:03.805Z,101496.80
2019-02-27T19:30:34.782Z,101485.49
2019-02-27T19:33:05.334Z,101473.77
2019-02-27T19:35:35.438Z,101459.05
2019-02-27T19:38:05.622Z,101461.94
2019-02-27T19:40:36.248Z,101466.88
2019-02-27T19:43:07.132Z,101460.48
2019-02-27T19:45:37.807Z,101460.97
2019-02-27T19:48:08.012Z,101450.14
2019-02-27T19:50:38.078Z,101442.23
2019-02-27T19:53:08.030Z,101443.22
2019-02-27T19:55:37.997Z,101439.35
2019-02-27T19:58:08.188Z,101435.06
2019-02-27T20:00:47.632Z,101426.70
2019-02-27T20:03:10.074Z,101420.47
2019-02-27T20:05:40.034Z,101417.91
2019-02-27T20:08:11.128Z,101416.73
2019-02-27T20:10:41.137Z,101408.13
2019-02-27T20:13:11.211Z,101406.32
2019-02-27T20:15:42.763Z,101408.36
2019-02-27T20:18:15.698Z,101399.91
2019-02-27T20:20:46.237Z,101393.45
2019-02-27T20:23:16.253Z,101393.64
2019-02-27T20:25:46.769Z,101377.18
2019-02-27T20:28:16.734Z,101375.66
2019-02-27T20:30:46.960Z,101375.02
2019-02-27T20:33:17.081Z,101366.44
2019-02-27T20:35:47.353Z,101365.89
2019-02-27T20:38:17.348Z,101359.05
2019-02-27T20:40:47.344Z,101351.26
2019-02-27T20:43:17.324Z,101352.00
2019-02-27T20:45:47.275Z,101351.13
2019-02-27T20:48:17.337Z,101340.23
2019-02-27T20:50:47.895Z,101338.91
2019-02-27T20:53:20.942Z,101331.75
2019-02-27T20:55:50.049Z,101328.30
2019-02-27T20:58:22.075Z,101327.98
2019-02-27T21:00:51.920Z,101322.82
2019-02-27T21:03:26.924Z,101314.09
2019-02-27T21:05:54.116Z,101312.14
2019-02-27T21:08:24.100Z,101300.48
2019-02-27T21:10:55.300Z,101304.11
2019-02-27T21:13:25.873Z,101296.78
2019-02-27T21:15:56.245Z,101294.27
2019-02-27T21:18:29.112Z,101287.08
2019-02-27T21:20:58.413Z,101282.02
2019-02-27T21:23:31.808Z,101278.73
2019-02-27T21:26:00.317Z,101271.52
2019-02-27T21:28:30.409Z,101266.28
2019-02-27T21:31:00.497Z,101269.39
2019-02-27T21:33:30.427Z,101266.67
2019-02-27T21:36:03.367Z,101265.48
2019-02-27T21:38:32.862Z,101255.23
2019-02-27T21:41:02.868Z,101255.73
2019-02-27T21:43:33.113Z,101249.96
2019-02-27T21:46:03.157Z,101238.93
2019-02-27T21:48:33.165Z,101235.81
2019-02-27T21:51:03.126Z,101236.22
2019-02-27T21:53:33.032Z,101232.44
2019-02-27T21:56:03.282Z,101234.55
2019-02-27T21:58:33.268Z,101226.81
2019-02-27T22:01:03.580Z,101220.09
2019-02-27T22:03:35.229Z,101211.75
2019-02-27T22:06:05.767Z,101213.64
2019-02-27T22:08:36.114Z,101212.61
2019-02-27T22:11:07.996Z,101205.20
2019-02-27T22:13:37.917Z,101199.63
2019-02-27T22:16:08.057Z,101195.28
2019-02-27T22:18:38.061Z,101189.52
2019-02-27T22:21:08.105Z,101189.42
2019-02-27T22:23:38.686Z,101189.34
2019-02-27T22:26:08.677Z,101191.59
2019-02-27T22:28:38.660Z,101184.50
2019-02-27T22:31:08.635Z,101188.72
2019-02-27T22:33:38.665Z,101175.33
2019-02-27T22:36:12.479Z,101176.14
2019-02-27T22:38:40.594Z,101177.69
2019-02-27T22:41:11.600Z,101176.98
2019-02-27T22:43:41.521Z,101173.91
2019-02-27T22:46:13.669Z,101170.70
2019-02-27T22:48:43.483Z,101163.63
2019-02-27T22:51:13.532Z,101158.48
2019-02-27T22:53:43.777Z,101159.61
2019-02-27T22:56:16.824Z,101150.66
2019-02-27T22:58:45.437Z,101151.79
2019-02-27T23:01:31.075Z,101149.06
2019-02-27T23:04:09.565Z,101133.23
2019-02-27T23:06:39.570Z,101130.09
2019-02-27T23:09:14.090Z,101126.55
2019-02-27T23:11:44.721Z,101111.54
2019-02-27T23:14:15.337Z,101116.52
2019-02-27T23:16:48.585Z,101105.38
2019-02-27T23:19:18.836Z,101097.92
2019-02-27T23:21:49.906Z,101095.30
2019-02-27T23:24:20.003Z,101089.73
2019-02-27T23:26:54.350Z,101087.53
2019-02-27T23:29:22.074Z,101077.56
2019-02-27T23:31:54.799Z,101071.72
2019-02-27T23:34:24.929Z,101072.95
2019-02-27T23:36:56.533Z,101069.83
2019-02-27T23:39:27.663Z,101064.77
2019-02-27T23:41:57.576Z,101059.34
2019-02-27T23:44:28.061Z,101053.27
2019-02-27T23:46:58.355Z,101057.53
2019-02-27T23:49:28.678Z,101048.54
2019-02-27T23:51:59.184Z,101048.77
2019-02-27T23:54:29.372Z,101041.48
2019-02-27T23:57:00.019Z,101041.70
2019-02-27T23:59:32.973Z,101031.77
